Time;durP1;ratioP1;P1;durP2;ratioP2;P2;SDS_P1;SDS_P2;PMS_P1;PMS_P2;Temp;Humidity;BMP_temperature;BMP_pressure;BME280_temperature;BME280_humidity;BME280_pressure;Samples;Min_cycle;Max_cycle;Signal;HPM_P1;HPM_P2
2021/01/17 00:00:16;;;;;;;12.27;3.30;;;;;;;7.59;100.00;101957.75;1909463;75;26641;-78
2021/01/17 00:02:47;;;;;;;10.80;2.90;;;;;;;7.61;100.00;101954.22;1909347;75;26175;-77
2021/01/17 00:05:20;;;;;;;12.20;2.70;;;;;;;7.57;100.00;101957.12;1909386;75;26256;-77
2021/01/17 00:07:50;;;;;;;11.23;3.43;;;;;;;7.54;100.00;101959.00;1909335;74;26656;-77
2021/01/17 00:10:23;;;;;;;12.50;2.57;;;;;;;7.50;100.00;101963.32;1909401;75;26601;-77
2021/01/17 00:12:54;;;;;;;12.30;3.03;;;;;;;7.45;100.00;101960.42;1909470;75;26185;-77
2021/01/17 00:15:25;;;;;;;9.57;2.73;;;;;;;7.30;100.00;101955.36;1909511;75;26175;-77
2021/01/17 00:17:55;;;;;;;9.60;2.23;;;;;;;7.26;100.00;101965.20;1909484;75;26268;-77
2021/01/17 00:20:26;;;;;;;10.80;2.53;;;;;;;7.24;100.00;101977.02;1909470;75;26652;-77
2021/01/17 00:23:01;;;;;;;8.37;1.90;;;;;;;7.14;100.00;101968.48;1909364;75;26218;-77
2021/01/17 00:25:33;;;;;;;12.60;3.00;;;;;;;7.15;100.00;101965.99;1909505;75;26272;-76
2021/01/17 00:28:05;;;;;;;10.67;2.53;;;;;;;7.24;100.00;101961.81;1909389;75;26170;-77
2021/01/17 00:30:35;;;;;;;8.70;2.17;;;;;;;7.18;100.00;101958.64;1909488;75;26178;-76
2021/01/17 00:33:06;;;;;;;9.97;2.93;;;;;;;7.21;100.00;101964.22;1909411;75;26194;-75
2021/01/17 00:35:36;;;;;;;8.70;2.03;;;;;;;7.27;100.00;101962.72;1909436;75;26264;-75
2021/01/17 00:38:08;;;;;;;12.67;2.60;;;;;;;7.18;100.00;101962.78;1909397;75;26272;-75
2021/01/17 00:40:38;;;;;;;9.50;2.40;;;;;;;7.16;100.00;101966.84;1909458;75;26173;-75
2021/01/17 00:43:08;;;;;;;10.33;2.77;;;;;;;7.10;100.00;101963.09;1909401;75;26182;-76
2021/01/17 00:45:38;;;;;;;6.50;2.07;;;;;;;7.14;100.00;101965.71;1909463;75;26279;-75
2021/01/17 00:48:09;;;;;;;13.90;2.63;;;;;;;7.08;100.00;101955.59;1909422;75;26171;-76
2021/01/17 00:50:39;;;;;;;12.30;2.83;;;;;;;7.02;100.00;101954.28;1909477;75;26719;-77
2021/01/17 00:53:09;;;;;;;11.17;2.50;;;;;;;7.02;100.00;101951.52;1909440;75;26182;-76
2021/01/17 00:55:41;;;;;;;8.67;2.50;;;;;;;6.76;100.00;101966.02;1909515;75;26255;-77
2021/01/17 00:58:11;;;;;;;11.93;3.50;;;;;;;6.91;100.00;101952.34;1909402;75;26277;-76
2021/01/17 01:00:41;;;;;;;12.40;2.70;;;;;;;7.00;100.00;101961.98;1909388;75;26303;-76
2021/01/17 01:03:13;;;;;;;10.77;2.67;;;;;;;7.04;100.00;101959.91;1909400;75;26222;-76
2021/01/17 01:05:43;;;;;;;8.60;2.60;;;;;;;7.06;100.00;101959.67;1909356;75;26186;-76
2021/01/17 01:08:12;;;;;;;12.20;2.83;;;;;;;6.99;100.00;101953.38;1909346;74;26190;-77
2021/01/17 01:10:42;;;;;;;9.53;2.10;;;;;;;6.97;100.00;101960.55;1909588;75;26194;-78
2021/01/17 01:13:13;;;;;;;9.27;2.87;;;;;;;6.88;100.00;101961.95;1909399;75;26183;-76
2021/01/17 01:15:43;;;;;;;11.33;2.47;;;;;;;6.90;100.00;101954.78;1909336;75;26244;-75
2021/01/17 01:18:13;;;;;;;10.30;2.60;;;;;;;6.63;100.00;101958.47;1909423;75;26178;-76
2021/01/17 01:20:43;;;;;;;7.90;2.30;;;;;;;6.53;100.00;101957.62;1909474;75;26268;-76
2021/01/17 01:23:13;;;;;;;12.10;2.33;;;;;;;6.42;100.00;101955.63;1909535;75;26218;-77
2021/01/17 01:25:43;;;;;;;10.43;2.80;;;;;;;6.35;100.00;101964.53;1909401;75;26639;-76
2021/01/17 01:28:13;;;;;;;9.13;2.13;;;;;;;6.34;100.00;101968.35;1909363;75;26178;-77
2021/01/17 01:30:42;;;;;;;9.53;2.03;;;;;;;6.31;100.00;101976.56;1909439;75;26641;-76
2021/01/17 01:33:12;;;;;;;10.97;2.90;;;;;;;6.23;100.00;101974.12;1909390;75;26719;-76
2021/01/17 01:35:42;;;;;;;10.03;2.90;;;;;;;6.47;100.00;101976.48;1909358;75;26669;-78
2021/01/17 01:38:13;;;;;;;8.63;2.60;;;;;;;6.52;100.00;101969.73;1909354;75;26248;-77
2021/01/17 01:40:45;;;;;;;9.10;2.33;;;;;;;6.58;100.00;101971.58;1909388;75;26182;-77
2021/01/17 01:43:17;;;;;;;9.80;2.53;;;;;;;6.57;100.00;101964.38;1909419;75;26181;-78
2021/01/17 01:45:47;;;;;;;12.83;3.03;;;;;;;6.55;100.00;101962.89;1909456;75;26206;-78
2021/01/17 01:48:19;;;;;;;9.13;2.63;;;;;;;6.40;100.00;101971.05;1909383;75;26240;-77
2021/01/17 01:50:49;;;;;;;11.00;2.70;;;;;;;6.34;100.00;101965.06;1909356;75;26240;-77
2021/01/17 01:53:19;;;;;;;12.97;2.63;;;;;;;6.34;100.00;101962.30;1909340;75;26302;-78
2021/01/17 01:55:49;;;;;;;8.43;2.67;;;;;;;6.35;100.00;101965.37;1909349;75;26637;-78
2021/01/17 01:58:21;;;;;;;8.40;2.83;;;;;;;6.41;100.00;101965.00;1909592;75;26252;-77
2021/01/17 02:00:51;;;;;;;11.03;2.70;;;;;;;6.44;100.00;101970.05;1909355;75;26209;-77
2021/01/17 02:03:22;;;;;;;10.03;2.83;;;;;;;6.54;100.00;101968.13;1909446;75;26680;-78
2021/01/17 02:05:52;;;;;;;11.17;2.83;;;;;;;6.69;100.00;101969.95;1909348;75;26253;-77
2021/01/17 02:08:32;;;;;;;15.63;3.17;;;;;;;6.73;100.00;101967.87;1909338;75;26226;-78
2021/01/17 02:11:04;;;;;;;11.03;2.43;;;;;;;6.81;100.00;101968.08;1909503;74;26805;-78
2021/01/17 02:13:38;;;;;;;12.53;2.33;;;;;;;6.78;100.00;101977.69;1909336;75;26165;-79
2021/01/17 02:16:10;;;;;;;9.93;2.10;;;;;;;6.80;100.00;101971.94;1909386;75;26244;-77
2021/01/17 02:18:43;;;;;;;10.97;2.63;;;;;;;6.81;100.00;101968.92;1909563;75;26163;-78
2021/01/17 02:21:14;;;;;;;10.90;2.17;;;;;;;6.88;100.00;101972.14;1909581;75;26213;-78
2021/01/17 02:23:47;;;;;;;11.07;2.80;;;;;;;6.89;100.00;101987.66;1909479;75;26210;-78
2021/01/17 02:26:17;;;;;;;14.77;3.10;;;;;;;6.97;100.00;101982.64;1909528;75;26202;-78
2021/01/17 02:28:48;;;;;;;11.33;2.73;;;;;;;7.06;100.00;101983.16;1909305;75;26631;-77
2021/01/17 02:31:20;;;;;;;19.83;2.80;;;;;;;7.04;100.00;101978.39;1909282;75;26248;-76
2021/01/17 02:33:52;;;;;;;8.80;2.20;;;;;;;6.96;100.00;101982.86;1909459;75;26175;-77
2021/01/17 02:36:30;;;;;;;13.00;2.90;;;;;;;6.92;100.00;101981.12;1909426;75;26190;-77
2021/01/17 02:39:06;;;;;;;10.27;2.43;;;;;;;6.95;100.00;101983.94;1909558;75;26287;-77
2021/01/17 02:41:40;;;;;;;14.07;3.30;;;;;;;7.00;100.00;101987.69;1909737;75;26201;-76
2021/01/17 02:44:10;;;;;;;11.40;2.53;;;;;;;7.04;100.00;101981.16;1909307;75;26649;-76
2021/01/17 02:46:40;;;;;;;12.27;2.90;;;;;;;6.97;100.00;101978.50;1909246;75;26184;-78
2021/01/17 02:49:10;;;;;;;14.37;3.10;;;;;;;6.91;100.00;101982.19;1909294;75;26287;-77
2021/01/17 02:51:40;;;;;;;8.33;3.00;;;;;;;6.99;100.00;101986.00;1909305;75;26190;-79
2021/01/17 02:54:12;;;;;;;12.90;2.40;;;;;;;6.93;100.00;101993.83;1909453;75;26166;-77
2021/01/17 02:56:45;;;;;;;8.03;2.70;;;;;;;6.94;100.00;101994.67;1909219;75;26201;-77
2021/01/17 02:59:17;;;;;;;12.33;3.03;;;;;;;7.04;100.00;101990.83;1909245;75;26233;-76
2021/01/17 03:01:49;;;;;;;16.30;3.50;;;;;;;7.04;100.00;102000.50;1909331;75;26175;-77
2021/01/17 03:04:23;;;;;;;12.83;2.50;;;;;;;7.00;100.00;102000.66;1909341;75;26657;-77
2021/01/17 03:06:53;;;;;;;7.47;2.30;;;;;;;7.14;100.00;102007.16;1909707;75;26661;-77
2021/01/17 03:09:23;;;;;;;11.53;2.57;;;;;;;7.14;100.00;102007.16;1909442;75;26770;-77
2021/01/17 03:11:53;;;;;;;11.80;2.70;;;;;;;7.19;100.00;102002.28;1909514;75;26243;-77
2021/01/17 03:14:24;;;;;;;17.27;3.00;;;;;;;7.09;100.00;102003.41;1909578;75;26287;-76
2021/01/17 03:16:54;;;;;;;10.13;2.63;;;;;;;7.03;100.00;102008.47;1909523;75;26719;-77
2021/01/17 03:19:24;;;;;;;10.03;2.93;;;;;;;7.04;100.00;102010.16;1909647;75;26190;-76
2021/01/17 03:21:53;;;;;;;14.77;3.73;;;;;;;6.92;100.00;102004.59;1909643;75;26206;-79
2021/01/17 03:24:23;;;;;;;9.93;2.93;;;;;;;6.86;100.00;101993.08;1909556;75;26331;-78
2021/01/17 03:26:54;;;;;;;11.23;2.80;;;;;;;6.81;100.00;101997.92;1909442;75;26230;-77
2021/01/17 03:29:23;;;;;;;12.10;2.33;;;;;;;6.81;100.00;101996.54;1909611;75;26187;-77
2021/01/17 03:31:53;;;;;;;14.87;2.83;;;;;;;6.76;100.00;102009.37;1909740;75;26674;-77
2021/01/17 03:34:23;;;;;;;11.27;2.50;;;;;;;6.77;100.00;102015.19;1909481;75;26303;-77
2021/01/17 03:36:53;;;;;;;11.70;2.17;;;;;;;6.76;100.00;102022.62;1909404;75;26225;-77
2021/01/17 03:39:23;;;;;;;12.50;2.67;;;;;;;6.93;100.00;102023.39;1909396;75;26309;-76
2021/01/17 03:41:53;;;;;;;13.83;2.90;;;;;;;6.99;100.00;102024.67;1909472;75;26229;-78
2021/01/17 03:44:23;;;;;;;12.63;2.97;;;;;;;7.02;100.00;102025.58;1909469;75;26684;-77
2021/01/17 03:46:53;;;;;;;15.23;2.90;;;;;;;6.99;100.00;102034.34;1909423;75;26761;-77
2021/01/17 03:49:23;;;;;;;13.83;2.80;;;;;;;7.06;100.00;102033.70;1909468;75;26217;-78
2021/01/17 03:51:53;;;;;;;10.93;2.70;;;;;;;7.07;100.00;102034.02;1909396;75;26727;-77
2021/01/17 03:54:23;;;;;;;9.03;2.67;;;;;;;6.94;100.00;102027.28;1909431;75;26813;-77
2021/01/17 03:56:53;;;;;;;11.43;3.10;;;;;;;6.91;100.00;102035.20;1909456;75;26738;-77
2021/01/17 03:59:23;;;;;;;11.73;2.47;;;;;;;6.96;100.00;102043.10;1909499;75;26665;-77
2021/01/17 04:01:53;;;;;;;12.43;3.37;;;;;;;6.97;100.00;102041.19;1909455;75;26727;-80
2021/01/17 04:04:23;;;;;;;13.80;2.70;;;;;;;7.02;100.00;102047.67;1909360;75;26295;-79
2021/01/17 04:06:53;;;;;;;8.70;2.90;;;;;;;7.02;100.00;102044.92;1909426;75;26786;-79
2021/01/17 04:09:23;;;;;;;10.57;3.37;;;;;;;7.07;100.00;102049.75;1909388;75;26299;-79
2021/01/17 04:11:53;;;;;;;8.77;2.30;;;;;;;7.09;100.00;102055.36;1909370;74;26281;-78
2021/01/17 04:14:22;;;;;;;10.63;2.60;;;;;;;7.19;100.00;102056.16;1909344;75;26477;-78
2021/01/17 04:16:53;;;;;;;10.43;2.57;;;;;;;7.19;100.00;102052.87;1909378;75;26781;-79
2021/01/17 04:19:22;;;;;;;14.87;3.63;;;;;;;7.20;100.00;102048.19;1909354;75;26237;-77
2021/01/17 04:21:52;;;;;;;13.77;3.37;;;;;;;7.20;100.00;102046.27;1909388;75;26199;-78
2021/01/17 04:24:22;;;;;;;9.47;2.80;;;;;;;7.12;100.00;102042.45;1909353;75;26241;-78
2021/01/17 04:26:58;;;;;;;16.33;2.80;;;;;;;7.09;100.00;102037.94;1909333;75;26642;-77
2021/01/17 04:29:28;;;;;;;11.60;2.60;;;;;;;7.11;100.00;102042.14;1909394;75;26637;-78
2021/01/17 04:31:59;;;;;;;9.87;2.90;;;;;;;7.02;100.00;102039.92;1909404;75;26607;-77
2021/01/17 04:34:30;;;;;;;10.00;2.50;;;;;;;6.99;100.00;102048.16;1909367;75;26166;-77
2021/01/17 04:37:00;;;;;;;10.37;2.70;;;;;;;6.99;100.00;102047.31;1909393;75;26225;-77
2021/01/17 04:39:30;;;;;;;10.50;2.33;;;;;;;6.87;100.00;102045.88;1909383;75;26178;-77
2021/01/17 04:42:01;;;;;;;9.47;2.40;;;;;;;6.83;100.00;102044.11;1909366;75;26252;-77
2021/01/17 04:44:35;;;;;;;9.00;2.80;;;;;;;6.85;100.00;102049.39;1909389;75;26190;-77
2021/01/17 04:47:06;;;;;;;10.10;2.97;;;;;;;6.83;100.00;102052.40;1909348;75;26186;-78
2021/01/17 04:49:38;;;;;;;12.23;3.00;;;;;;;6.79;100.00;102056.70;1909349;75;26641;-78
2021/01/17 04:52:11;;;;;;;13.77;3.13;;;;;;;6.81;100.00;102060.06;1909291;75;26190;-78
2021/01/17 04:54:42;;;;;;;9.07;2.33;;;;;;;6.81;100.00;102053.16;1909459;75;26264;-78
2021/01/17 04:57:15;;;;;;;10.97;2.90;;;;;;;6.86;100.00;102050.55;1909352;75;26315;-78
2021/01/17 04:59:50;;;;;;;14.30;3.07;;;;;;;6.84;100.00;102051.87;1909767;75;26202;-78
2021/01/17 05:02:28;;;;;;;15.23;2.97;;;;;;;6.89;100.00;102051.98;1897113;74;932951;-77
2021/01/17 05:05:24;;;;;;;11.63;3.13;;;;;;;6.92;100.00;102063.13;1909365;75;26190;-77
2021/01/17 05:08:03;;;;;;;16.13;2.80;;;;;;;6.97;100.00;102076.56;1909316;75;26315;-77
2021/01/17 05:10:39;;;;;;;16.00;3.30;;;;;;;6.91;100.00;102074.71;1907915;75;26284;-78
2021/01/17 05:13:11;;;;;;;13.07;2.83;;;;;;;6.84;100.00;102079.48;1909279;74;26289;-78
2021/01/17 05:15:43;;;;;;;11.10;2.50;;;;;;;6.80;100.00;102076.31;1909384;75;26186;-77
2021/01/17 05:18:13;;;;;;;16.50;2.90;;;;;;;6.83;100.00;102080.02;1909524;75;26170;-78
2021/01/17 05:20:45;;;;;;;12.67;2.43;;;;;;;6.84;100.00;102096.05;1909358;75;26179;-78
2021/01/17 05:23:16;;;;;;;12.50;2.87;;;;;;;6.77;100.00;102096.65;1909416;75;26257;-78
2021/01/17 05:25:49;;;;;;;9.13;2.10;;;;;;;6.78;100.00;102098.34;1909357;75;26629;-78
2021/01/17 05:28:19;;;;;;;8.00;2.00;;;;;;;6.80;100.00;102094.83;1909339;75;26185;-77
2021/01/17 05:30:50;;;;;;;10.20;2.47;;;;;;;6.81;100.00;102096.49;1909370;75;26182;-77
2021/01/17 05:33:22;;;;;;;11.87;2.20;;;;;;;6.62;100.00;102099.80;1909353;75;26190;-76
2021/01/17 05:35:52;;;;;;;9.03;2.27;;;;;;;6.68;100.00;102104.39;1909330;75;26751;-76
2021/01/17 05:38:22;;;;;;;9.53;1.80;;;;;;;6.63;100.00;102102.03;1909313;75;26189;-77
2021/01/17 05:40:52;;;;;;;8.93;1.90;;;;;;;6.52;100.00;102106.38;1909363;75;26626;-77
2021/01/17 05:43:22;;;;;;;10.33;2.13;;;;;;;6.44;100.00;102108.05;1909356;75;26635;-77
2021/01/17 05:45:51;;;;;;;8.27;1.70;;;;;;;6.46;100.00;102115.55;1909376;75;26182;-77
2021/01/17 05:48:21;;;;;;;7.10;1.90;;;;;;;6.42;100.00;102120.40;1909347;75;26201;-78
2021/01/17 05:50:53;;;;;;;8.13;2.40;;;;;;;6.44;100.00;102122.38;1909498;75;26251;-77
2021/01/17 05:53:26;;;;;;;7.77;2.20;;;;;;;6.40;100.00;102124.22;1909862;75;26244;-78
2021/01/17 05:55:56;;;;;;;10.07;2.67;;;;;;;6.28;100.00;102121.90;1909282;75;26167;-77
2021/01/17 05:58:28;;;;;;;12.90;2.10;;;;;;;6.27;100.00;102119.35;1909474;75;26672;-78
2021/01/17 06:00:59;;;;;;;11.10;2.60;;;;;;;6.31;100.00;102133.00;1909315;75;26622;-79
2021/01/17 06:03:32;;;;;;;8.73;2.27;;;;;;;6.29;100.00;102129.64;1909361;75;26194;-78
2021/01/17 06:06:04;;;;;;;9.37;2.40;;;;;;;6.17;100.00;102136.94;1909482;75;26636;-78
2021/01/17 06:08:35;;;;;;;12.30;2.70;;;;;;;6.23;100.00;102136.05;1909294;75;26191;-77
2021/01/17 06:11:10;;;;;;;10.83;2.50;;;;;;;6.25;100.00;102147.69;1909361;75;26206;-77
2021/01/17 06:13:41;;;;;;;11.03;2.07;;;;;;;6.22;100.00;102151.75;1909471;74;26300;-77
2021/01/17 06:16:26;;;;;;;9.03;2.50;;;;;;;6.19;100.00;102146.70;1909361;75;26236;-77
2021/01/17 06:18:57;;;;;;;11.40;2.10;;;;;;;6.16;100.00;102160.10;1909352;75;26652;-77
2021/01/17 06:21:29;;;;;;;8.60;1.97;;;;;;;6.14;100.00;102167.73;1909359;75;26190;-77
2021/01/17 06:24:01;;;;;;;8.27;2.03;;;;;;;6.17;100.00;102169.52;1909336;75;26219;-77
2021/01/17 06:26:33;;;;;;;6.83;2.10;;;;;;;6.12;100.00;102175.41;1909333;75;26182;-79
2021/01/17 06:29:05;;;;;;;10.17;2.63;;;;;;;6.10;100.00;102170.11;1909285;75;26617;-78
2021/01/17 06:31:36;;;;;;;8.23;1.83;;;;;;;6.07;100.00;102175.23;1909305;75;26291;-77
2021/01/17 06:34:08;;;;;;;8.80;2.10;;;;;;;6.08;100.00;102181.88;1909465;75;26170;-77
2021/01/17 06:36:39;;;;;;;7.73;1.93;;;;;;;6.06;100.00;102191.47;1909303;75;26673;-76
2021/01/17 06:39:20;;;;;;;6.90;1.80;;;;;;;6.01;100.00;102187.99;1909454;75;26247;-79
2021/01/17 06:41:54;;;;;;;7.83;2.53;;;;;;;5.97;100.00;102181.77;1909299;75;26637;-78
2021/01/17 06:44:28;;;;;;;9.03;2.07;;;;;;;5.90;100.00;102192.85;1909735;75;26678;-78
2021/01/17 06:46:58;;;;;;;7.07;2.00;;;;;;;5.94;100.00;102196.86;1909360;75;26190;-78
2021/01/17 06:49:30;;;;;;;7.60;1.93;;;;;;;5.86;100.00;102195.17;1909426;75;26715;-77
2021/01/17 06:52:01;;;;;;;7.33;2.03;;;;;;;5.89;100.00;102203.03;1909441;75;26198;-77
2021/01/17 06:54:35;;;;;;;7.33;2.13;;;;;;;5.91;100.00;102205.55;1909740;75;26189;-76
2021/01/17 06:57:06;;;;;;;8.87;2.33;;;;;;;5.84;100.00;102217.13;1909468;75;26311;-77
2021/01/17 06:59:39;;;;;;;9.50;1.97;;;;;;;5.82;100.00;102220.63;1909477;75;26249;-76
2021/01/17 07:02:40;;;;;;;9.97;2.03;;;;;;;5.67;100.00;102217.32;1909475;75;26182;-76
2021/01/17 07:05:35;;;;;;;13.57;3.00;;;;;;;5.70;100.00;102219.63;1909407;75;26630;-77
2021/01/17 07:08:08;;;;;;;10.50;2.43;;;;;;;5.58;100.00;102229.13;1909519;75;26687;-76
2021/01/17 07:10:42;;;;;;;8.27;2.33;;;;;;;5.53;100.00;102232.22;1909456;75;26711;-77
2021/01/17 07:13:14;;;;;;;10.53;2.00;;;;;;;5.52;100.00;102229.17;1909402;75;26235;-77
2021/01/17 07:15:46;;;;;;;11.30;2.43;;;;;;;5.49;100.00;102236.80;1909406;75;26252;-77
2021/01/17 07:18:18;;;;;;;9.97;2.23;;;;;;;5.49;100.00;102239.55;1909394;75;26696;-76
2021/01/17 07:20:50;;;;;;;15.83;2.73;;;;;;;5.49;100.00;102253.34;1909412;75;26178;-76
2021/01/17 07:23:21;;;;;;;10.60;2.83;;;;;;;5.49;100.00;102260.22;1869774;77;26262;-77
2021/01/17 07:25:51;;;;;;;9.30;2.30;;;;;;;5.48;100.00;102265.94;1869910;77;26222;-76
2021/01/17 07:28:22;;;;;;;13.80;2.40;;;;;;;5.58;100.00;102271.00;1909293;75;26251;-77
2021/01/17 07:30:55;;;;;;;8.30;2.93;;;;;;;5.58;100.00;102277.89;1909400;75;26179;-76
2021/01/17 07:33:27;;;;;;;8.13;2.17;;;;;;;5.61;100.00;102293.45;1909708;75;26240;-76
2021/01/17 07:35:59;;;;;;;7.27;2.07;;;;;;;5.62;100.00;102286.04;1909443;75;26687;-76
2021/01/17 07:38:31;;;;;;;6.80;2.03;;;;;;;5.64;100.00;102300.47;1909297;75;26259;-77
2021/01/17 07:41:03;;;;;;;8.50;2.00;;;;;;;5.55;100.00;102306.75;1909418;75;26194;-78
2021/01/17 07:43:35;;;;;;;10.40;2.57;;;;;;;5.65;100.00;102304.92;1909418;75;26633;-76
2021/01/17 07:46:08;;;;;;;8.17;2.07;;;;;;;5.64;100.00;102305.98;1909380;75;26182;-76
2021/01/17 07:48:39;;;;;;;8.60;1.77;;;;;;;5.68;100.00;102315.52;1909365;75;26239;-75
2021/01/17 07:51:11;;;;;;;9.57;2.00;;;;;;;5.76;100.00;102313.36;1909480;75;26182;-75
2021/01/17 07:53:53;;;;;;;7.10;3.10;;;;;;;5.71;100.00;102317.30;1909411;75;26265;-75
2021/01/17 07:56:28;;;;;;;4.40;1.70;;;;;;;5.72;100.00;102324.51;1909636;75;26617;-76
2021/01/17 07:59:03;;;;;;;7.60;2.17;;;;;;;5.73;100.00;102320.70;1909517;75;26609;-76
2021/01/17 08:01:49;;;;;;;6.60;1.57;;;;;;;5.66;100.00;102323.13;1909565;75;26170;-77
2021/01/17 08:04:26;;;;;;;7.27;1.47;;;;;;;5.65;100.00;102331.11;1909470;75;26614;-77
2021/01/17 08:07:02;;;;;;;5.73;1.33;;;;;;;5.66;100.00;102341.05;1909431;75;26685;-77
2021/01/17 08:09:48;;;;;;;6.13;1.77;;;;;;;5.64;100.00;102338.53;1909354;75;26201;-77
2021/01/17 08:12:41;;;;;;;6.03;1.60;;;;;;;5.73;100.00;102339.99;1909404;75;26252;-79
2021/01/17 08:15:17;;;;;;;7.73;1.70;;;;;;;5.79;100.00;102347.91;1909294;74;26223;-79
2021/01/17 08:17:47;;;;;;;5.27;1.30;;;;;;;5.84;100.00;102357.23;1909512;75;26222;-78
2021/01/17 08:20:32;;;;;;;4.00;1.23;;;;;;;5.86;100.00;102368.91;1909423;75;26236;-79
2021/01/17 08:23:08;;;;;;;5.90;1.40;;;;;;;5.91;100.00;102374.62;1909376;75;26295;-78
2021/01/17 08:25:57;;;;;;;3.80;1.47;;;;;;;5.98;100.00;102375.14;1909410;75;26178;-78
2021/01/17 08:28:42;;;;;;;5.27;1.43;;;;;;;6.01;100.00;102378.84;1909510;75;26213;-79
2021/01/17 08:31:43;;;;;;;4.60;1.40;;;;;;;6.00;100.00;102382.66;1909380;75;26613;-78
2021/01/17 08:34:19;;;;;;;5.73;1.33;;;;;;;5.98;100.00;102386.18;1909446;75;26244;-78
2021/01/17 08:36:49;;;;;;;5.00;1.23;;;;;;;6.10;100.00;102392.70;1909432;75;26248;-77
2021/01/17 08:39:44;;;;;;;3.40;1.23;;;;;;;6.08;100.00;102395.67;1909407;75;26613;-76
2021/01/17 08:42:32;;;;;;;4.83;1.17;;;;;;;6.06;100.00;102397.81;1909384;75;26185;-76
2021/01/17 08:45:04;;;;;;;4.63;1.30;;;;;;;6.12;100.00;102394.17;1909346;75;26186;-77
2021/01/17 08:47:37;;;;;;;7.00;1.80;;;;;;;6.15;100.00;102393.76;1909386;75;26187;-76
2021/01/17 08:50:08;;;;;;;5.63;1.30;;;;;;;6.15;100.00;102396.52;1909357;75;26194;-76
2021/01/17 08:52:38;;;;;;;3.10;1.20;;;;;;;6.14;100.00;102406.37;1909490;75;26216;-76
2021/01/17 08:55:10;;;;;;;5.63;1.10;;;;;;;6.20;100.00;102410.51;1909383;75;26238;-77
2021/01/17 08:57:43;;;;;;;2.37;1.10;;;;;;;6.27;100.00;102415.98;1909361;75;26190;-76
2021/01/17 09:00:16;;;;;;;5.03;1.10;;;;;;;6.24;100.00;102410.38;1909337;75;26186;-77
2021/01/17 09:02:46;;;;;;;2.27;0.90;;;;;;;6.16;100.00;102423.58;1909421;75;26174;-77
2021/01/17 09:05:20;;;;;;;4.40;1.87;;;;;;;6.26;100.00;102427.55;1909381;75;26178;-77
2021/01/17 09:07:50;;;;;;;2.87;0.93;;;;;;;6.25;100.00;102425.00;1909394;75;26166;-76
2021/01/17 09:10:20;;;;;;;4.53;1.43;;;;;;;6.19;100.00;102430.88;1909328;75;26189;-77
2021/01/17 09:12:53;;;;;;;2.87;1.20;;;;;;;6.14;100.00;102422.41;1909365;75;26171;-77
2021/01/17 09:15:24;;;;;;;4.07;1.10;;;;;;;6.21;100.00;102428.73;1908780;74;26242;-76
2021/01/17 09:18:01;;;;;;;3.80;1.20;;;;;;;6.27;100.00;102432.55;1909286;75;26174;-78
2021/01/17 09:20:33;;;;;;;6.00;1.03;;;;;;;6.21;100.00;102438.92;1909371;75;26687;-78
2021/01/17 09:23:04;;;;;;;2.97;1.00;;;;;;;6.19;100.00;102439.69;1909406;75;26645;-77
2021/01/17 09:25:34;;;;;;;2.23;0.93;;;;;;;6.20;100.00;102442.77;1909468;75;26217;-77
2021/01/17 09:28:04;;;;;;;3.57;0.93;;;;;;;6.19;100.00;102446.06;1909340;75;26629;-77
2021/01/17 09:30:36;;;;;;;2.53;1.00;;;;;;;6.26;100.00;102449.63;1909323;75;26271;-78
2021/01/17 09:33:08;;;;;;;2.37;0.80;;;;;;;6.33;100.00;102450.44;1909383;75;26676;-77
2021/01/17 09:35:38;;;;;;;4.50;1.07;;;;;;;6.32;100.00;102458.43;1909319;75;26175;-77
2021/01/17 09:38:10;;;;;;;2.87;0.93;;;;;;;6.34;100.00;102456.81;1909351;75;26221;-76
2021/01/17 09:40:40;;;;;;;6.60;1.37;;;;;;;6.38;100.00;102451.17;1909489;75;26694;-76
2021/01/17 09:43:11;;;;;;;2.57;1.07;;;;;;;6.45;100.00;102464.43;1909312;75;26186;-76
2021/01/17 09:45:41;;;;;;;4.83;1.67;;;;;;;6.44;100.00;102463.25;1909329;75;26167;-78
2021/01/17 09:48:18;;;;;;;4.27;1.47;;;;;;;6.55;100.00;102466.70;1909489;75;26182;-76
2021/01/17 09:50:50;;;;;;;2.90;1.13;;;;;;;6.45;100.00;102473.24;1909303;75;26191;-77
2021/01/17 09:53:21;;;;;;;7.23;1.27;;;;;;;6.57;100.00;102476.48;1868918;76;26323;-77
2021/01/17 09:55:51;;;;;;;3.03;1.10;;;;;;;6.70;100.00;102481.94;1909224;75;26190;-76
2021/01/17 09:58:23;;;;;;;5.27;0.97;;;;;;;6.67;100.00;102485.69;1909384;75;26186;-76
2021/01/17 10:00:54;;;;;;;5.77;1.20;;;;;;;6.69;100.00;102494.05;1909312;75;26179;-77
2021/01/17 10:03:27;;;;;;;3.50;1.30;;;;;;;6.73;100.00;102506.34;1909320;75;26182;-77
2021/01/17 10:05:57;;;;;;;3.37;1.00;;;;;;;6.78;100.00;102501.02;1909444;75;26620;-74
2021/01/17 10:08:28;;;;;;;4.87;1.13;;;;;;;6.90;100.00;102507.22;1909329;75;26171;-77
2021/01/17 10:10:59;;;;;;;3.90;1.03;;;;;;;6.92;100.00;102510.09;1909357;75;26249;-77
2021/01/17 10:13:29;;;;;;;5.53;1.37;;;;;;;6.92;100.00;102509.24;1909370;75;26758;-76
2021/01/17 10:15:59;;;;;;;4.10;1.13;;;;;;;6.97;100.00;102510.28;1909324;74;26258;-77
2021/01/17 10:18:29;;;;;;;4.10;1.00;;;;;;;7.03;100.00;102511.29;1909304;75;26222;-76
2021/01/17 10:20:59;;;;;;;3.03;0.90;;;;;;;7.11;100.00;102520.17;1909350;75;26197;-76
2021/01/17 10:23:32;;;;;;;4.20;1.40;;;;;;;7.14;100.00;102521.13;1909287;75;26265;-76
2021/01/17 10:26:02;;;;;;;3.30;1.30;;;;;;;7.12;100.00;102527.39;1909298;75;26166;-77
2021/01/17 10:28:33;;;;;;;3.63;1.27;;;;;;;7.10;100.00;102522.61;1909336;75;26256;-76
2021/01/17 10:31:03;;;;;;;3.33;1.20;;;;;;;7.19;100.00;102528.19;1909263;75;26186;-76
2021/01/17 10:33:33;;;;;;;4.37;1.23;;;;;;;7.18;100.00;102534.81;1909303;75;26162;-76
2021/01/17 10:36:02;;;;;;;2.20;0.83;;;;;;;7.24;100.00;102535.29;1909344;75;26695;-76
2021/01/17 10:38:34;;;;;;;7.67;1.80;;;;;;;7.32;100.00;102535.02;1909330;75;26229;-76
2021/01/17 10:41:04;;;;;;;4.53;1.17;;;;;;;7.29;100.00;102531.33;1909371;75;26169;-76
2021/01/17 10:43:36;;;;;;;4.47;1.40;;;;;;;7.35;100.00;102535.66;1909302;75;26626;-75
2021/01/17 10:46:10;;;;;;;8.70;1.77;;;;;;;7.43;100.00;102538.16;1909318;75;26228;-75
2021/01/17 10:48:44;;;;;;;4.20;1.20;;;;;;;7.42;100.00;102541.98;1909175;75;26688;-75
2021/01/17 10:51:17;;;;;;;4.93;1.20;;;;;;;7.47;100.00;102538.02;1909492;75;26198;-75
2021/01/17 10:53:50;;;;;;;3.87;1.50;;;;;;;7.39;100.00;102541.91;1909340;75;26601;-75
2021/01/17 10:56:22;;;;;;;4.30;1.10;;;;;;;7.36;100.00;102532.66;1909496;75;26217;-75
2021/01/17 10:58:53;;;;;;;4.53;1.90;;;;;;;7.41;100.00;102531.45;1909388;75;26648;-75
2021/01/17 11:01:33;;;;;;;3.57;1.20;;;;;;;7.49;100.00;102525.65;1909414;75;26179;-75
2021/01/17 11:04:03;;;;;;;5.03;1.37;;;;;;;7.55;100.00;102525.30;1909411;75;26194;-75
2021/01/17 11:06:33;;;;;;;6.60;1.17;;;;;;;7.58;100.00;102533.14;1909416;75;26625;-76
2021/01/17 11:09:05;;;;;;;4.87;1.13;;;;;;;7.55;100.00;102539.13;1909485;75;26175;-77
2021/01/17 11:11:44;;;;;;;4.50;1.50;;;;;;;7.62;100.00;102536.61;1909248;75;26244;-76
2021/01/17 11:14:14;;;;;;;2.37;0.87;;;;;;;7.57;100.00;102537.81;1909201;75;26263;-77
2021/01/17 11:16:45;;;;;;;5.03;1.00;;;;;;;7.60;100.00;102540.16;1909257;74;26217;-76
2021/01/17 11:19:17;;;;;;;4.20;1.00;;;;;;;7.58;100.00;102547.81;1909279;75;26171;-77
2021/01/17 11:21:49;;;;;;;3.93;1.07;;;;;;;7.64;100.00;102547.46;1909268;75;26190;-78
2021/01/17 11:24:19;;;;;;;4.33;1.37;;;;;;;7.71;100.00;102551.02;1909355;75;26343;-78
2021/01/17 11:26:49;;;;;;;3.73;0.97;;;;;;;7.66;100.00;102553.60;1909413;75;26445;-77
2021/01/17 11:29:19;;;;;;;5.03;1.20;;;;;;;7.70;100.00;102553.49;1909502;75;26295;-76
2021/01/17 11:31:49;;;;;;;5.43;1.23;;;;;;;7.69;100.00;102557.33;1909383;75;26484;-77
2021/01/17 11:34:19;;;;;;;3.30;1.43;;;;;;;7.72;100.00;102566.02;1909562;75;27076;-75
2021/01/17 11:36:57;;;;;;;8.60;1.80;;;;;;;7.66;100.00;102560.52;1909419;75;26205;-79
2021/01/17 11:39:27;;;;;;;4.67;1.40;;;;;;;7.76;100.00;102574.70;1909336;75;26179;-77
2021/01/17 11:41:57;;;;;;;4.93;1.00;;;;;;;7.86;100.00;102570.06;1909633;75;26268;-76
2021/01/17 11:44:29;;;;;;;8.20;1.30;;;;;;;7.82;100.00;102565.52;1909611;75;26175;-76